sensor_id;sensor_type;location;lat;lon;timestamp;P1;durP1;ratioP1;P2;durP2;ratioP2
10977;SDS011;5542;48.272;10.794;2022-12-18T00:01:52;21.98;;;13.82;;
10977;SDS011;5542;48.272;10.794;2022-12-18T00:04:20;21.52;;;13.15;;
10977;SDS011;5542;48.272;10.794;2022-12-18T00:06:50;23.65;;;14.32;;
10977;SDS011;5542;48.272;10.794;2022-12-18T00:09:17;23.83;;;13.35;;
10977;SDS011;5542;48.272;10.794;2022-12-18T00:11:44;23.65;;;14.25;;
10977;SDS011;5542;48.272;10.794;2022-12-18T00:14:11;20.45;;;12.63;;
10977;SDS011;5542;48.272;10.794;2022-12-18T00:16:39;21.27;;;12.20;;
10977;SDS011;5542;48.272;10.794;2022-12-18T00:19:06;21.70;;;12.50;;
10977;SDS011;5542;48.272;10.794;2022-12-18T00:21:33;20.70;;;11.77;;
10977;SDS011;5542;48.272;10.794;2022-12-18T00:24:01;19.65;;;11.73;;
10977;SDS011;5542;48.272;10.794;2022-12-18T00:26:28;20.65;;;12.40;;
10977;SDS011;5542;48.272;10.794;2022-12-18T00:28:58;19.27;;;11.90;;
10977;SDS011;5542;48.272;10.794;2022-12-18T00:31:25;20.40;;;12.00;;
10977;SDS011;5542;48.272;10.794;2022-12-18T00:33:53;20.13;;;11.68;;
10977;SDS011;5542;48.272;10.794;2022-12-18T00:36:20;18.23;;;11.68;;
10977;SDS011;5542;48.272;10.794;2022-12-18T00:38:48;18.58;;;11.45;;
10977;SDS011;5542;48.272;10.794;2022-12-18T00:41:16;20.17;;;11.80;;
10977;SDS011;5542;48.272;10.794;2022-12-18T00:44:05;18.45;;;11.70;;
10977;SDS011;5542;48.272;10.794;2022-12-18T00:46:32;20.15;;;10.80;;
10977;SDS011;5542;48.272;10.794;2022-12-18T00:48:58;18.05;;;10.48;;
10977;SDS011;5542;48.272;10.794;2022-12-18T00:51:25;16.80;;;10.88;;
10977;SDS011;5542;48.272;10.794;2022-12-18T00:53:52;17.75;;;11.15;;
10977;SDS011;5542;48.272;10.794;2022-12-18T00:56:20;19.45;;;11.57;;
10977;SDS011;5542;48.272;10.794;2022-12-18T00:58:47;20.13;;;11.25;;
10977;SDS011;5542;48.272;10.794;2022-12-18T01:01:14;19.35;;;11.30;;
10977;SDS011;5542;48.272;10.794;2022-12-18T01:03:40;20.10;;;11.82;;
10977;SDS011;5542;48.272;10.794;2022-12-18T01:06:07;18.33;;;11.10;;
10977;SDS011;5542;48.272;10.794;2022-12-18T01:08:36;18.02;;;11.23;;
10977;SDS011;5542;48.272;10.794;2022-12-18T01:11:06;18.10;;;10.70;;
10977;SDS011;5542;48.272;10.794;2022-12-18T01:13:35;16.77;;;10.18;;
10977;SDS011;5542;48.272;10.794;2022-12-18T01:16:02;16.40;;;10.63;;
10977;SDS011;5542;48.272;10.794;2022-12-18T01:18:29;14.15;;;9.98;;
10977;SDS011;5542;48.272;10.794;2022-12-18T01:20:56;16.75;;;10.20;;
10977;SDS011;5542;48.272;10.794;2022-12-18T01:23:22;18.50;;;11.30;;
10977;SDS011;5542;48.272;10.794;2022-12-18T01:25:49;16.03;;;10.30;;
10977;SDS011;5542;48.272;10.794;2022-12-18T01:28:15;17.17;;;10.70;;
10977;SDS011;5542;48.272;10.794;2022-12-18T01:30:43;18.73;;;11.30;;
10977;SDS011;5542;48.272;10.794;2022-12-18T01:33:10;17.38;;;10.90;;
10977;SDS011;5542;48.272;10.794;2022-12-18T01:35:39;17.42;;;10.85;;
10977;SDS011;5542;48.272;10.794;2022-12-18T01:38:07;17.05;;;10.50;;
10977;SDS011;5542;48.272;10.794;2022-12-18T01:40:34;16.30;;;10.30;;
10977;SDS011;5542;48.272;10.794;2022-12-18T01:43:01;15.60;;;10.13;;
10977;SDS011;5542;48.272;10.794;2022-12-18T01:45:27;15.90;;;10.38;;
10977;SDS011;5542;48.272;10.794;2022-12-18T01:47:57;17.88;;;10.43;;
10977;SDS011;5542;48.272;10.794;2022-12-18T01:50:27;17.50;;;10.30;;
10977;SDS011;5542;48.272;10.794;2022-12-18T01:52:58;16.90;;;10.52;;
10977;SDS011;5542;48.272;10.794;2022-12-18T01:55:29;18.98;;;11.40;;
10977;SDS011;5542;48.272;10.794;2022-12-18T01:57:58;16.88;;;10.27;;
10977;SDS011;5542;48.272;10.794;2022-12-18T02:00:28;17.25;;;10.85;;
10977;SDS011;5542;48.272;10.794;2022-12-18T02:02:55;17.15;;;10.40;;
10977;SDS011;5542;48.272;10.794;2022-12-18T02:05:25;16.95;;;10.50;;
10977;SDS011;5542;48.272;10.794;2022-12-18T02:08:01;18.13;;;10.97;;
10977;SDS011;5542;48.272;10.794;2022-12-18T02:10:35;16.70;;;10.15;;
10977;SDS011;5542;48.272;10.794;2022-12-18T02:13:11;21.73;;;11.40;;
10977;SDS011;5542;48.272;10.794;2022-12-18T02:15:42;15.95;;;10.52;;
10977;SDS011;5542;48.272;10.794;2022-12-18T02:18:16;20.15;;;11.18;;
10977;SDS011;5542;48.272;10.794;2022-12-18T02:20:47;19.30;;;11.17;;
10977;SDS011;5542;48.272;10.794;2022-12-18T02:23:21;21.48;;;12.75;;
10977;SDS011;5542;48.272;10.794;2022-12-18T02:26:02;23.30;;;12.10;;
10977;SDS011;5542;48.272;10.794;2022-12-18T02:28:34;18.20;;;11.50;;
10977;SDS011;5542;48.272;10.794;2022-12-18T02:31:04;21.13;;;12.47;;
10977;SDS011;5542;48.272;10.794;2022-12-18T02:33:34;23.38;;;13.52;;
10977;SDS011;5542;48.272;10.794;2022-12-18T02:36:02;24.85;;;14.20;;
10977;SDS011;5542;48.272;10.794;2022-12-18T02:38:30;20.35;;;12.00;;
10977;SDS011;5542;48.272;10.794;2022-12-18T02:40:58;19.48;;;12.25;;
10977;SDS011;5542;48.272;10.794;2022-12-18T02:43:27;21.10;;;13.05;;
10977;SDS011;5542;48.272;10.794;2022-12-18T02:45:56;21.70;;;13.23;;
10977;SDS011;5542;48.272;10.794;2022-12-18T02:48:26;24.63;;;13.70;;
10977;SDS011;5542;48.272;10.794;2022-12-18T02:50:58;24.08;;;12.32;;
10977;SDS011;5542;48.272;10.794;2022-12-18T02:53:31;20.65;;;12.18;;
10977;SDS011;5542;48.272;10.794;2022-12-18T02:56:09;21.10;;;12.25;;
10977;SDS011;5542;48.272;10.794;2022-12-18T02:58:40;25.58;;;12.82;;
10977;SDS011;5542;48.272;10.794;2022-12-18T03:01:15;22.55;;;13.20;;
10977;SDS011;5542;48.272;10.794;2022-12-18T03:03:46;25.17;;;13.05;;
10977;SDS011;5542;48.272;10.794;2022-12-18T03:06:18;23.90;;;12.95;;
10977;SDS011;5542;48.272;10.794;2022-12-18T03:08:50;25.17;;;13.23;;
10977;SDS011;5542;48.272;10.794;2022-12-18T03:11:22;23.33;;;13.30;;
10977;SDS011;5542;48.272;10.794;2022-12-18T03:14:05;23.90;;;13.82;;
10977;SDS011;5542;48.272;10.794;2022-12-18T03:16:33;22.88;;;13.15;;
10977;SDS011;5542;48.272;10.794;2022-12-18T03:19:02;26.80;;;13.25;;
10977;SDS011;5542;48.272;10.794;2022-12-18T03:21:33;23.77;;;13.05;;
10977;SDS011;5542;48.272;10.794;2022-12-18T03:24:03;23.48;;;12.52;;
10977;SDS011;5542;48.272;10.794;2022-12-18T03:26:33;21.05;;;11.95;;
10977;SDS011;5542;48.272;10.794;2022-12-18T03:29:02;22.15;;;11.43;;
10977;SDS011;5542;48.272;10.794;2022-12-18T03:31:36;26.02;;;13.98;;
10977;SDS011;5542;48.272;10.794;2022-12-18T03:34:08;25.60;;;13.23;;
10977;SDS011;5542;48.272;10.794;2022-12-18T03:36:39;24.25;;;12.85;;
10977;SDS011;5542;48.272;10.794;2022-12-18T03:39:06;26.23;;;13.88;;
10977;SDS011;5542;48.272;10.794;2022-12-18T03:41:33;26.17;;;13.77;;
10977;SDS011;5542;48.272;10.794;2022-12-18T03:44:09;24.38;;;13.80;;
10977;SDS011;5542;48.272;10.794;2022-12-18T03:46:44;25.98;;;14.13;;
10977;SDS011;5542;48.272;10.794;2022-12-18T03:49:20;26.08;;;13.70;;
10977;SDS011;5542;48.272;10.794;2022-12-18T03:51:52;24.25;;;12.75;;
10977;SDS011;5542;48.272;10.794;2022-12-18T03:54:23;26.10;;;12.75;;
10977;SDS011;5542;48.272;10.794;2022-12-18T03:56:54;23.58;;;12.90;;
10977;SDS011;5542;48.272;10.794;2022-12-18T03:59:23;23.88;;;13.32;;
10977;SDS011;5542;48.272;10.794;2022-12-18T04:01:53;25.45;;;11.88;;
10977;SDS011;5542;48.272;10.794;2022-12-18T04:04:23;26.45;;;12.32;;
10977;SDS011;5542;48.272;10.794;2022-12-18T04:06:51;21.83;;;11.75;;
10977;SDS011;5542;48.272;10.794;2022-12-18T04:09:18;20.25;;;11.05;;
10977;SDS011;5542;48.272;10.794;2022-12-18T04:11:46;19.15;;;11.05;;
10977;SDS011;5542;48.272;10.794;2022-12-18T04:14:13;21.75;;;11.50;;
10977;SDS011;5542;48.272;10.794;2022-12-18T04:16:40;21.90;;;11.27;;
10977;SDS011;5542;48.272;10.794;2022-12-18T04:19:08;20.50;;;11.10;;
10977;SDS011;5542;48.272;10.794;2022-12-18T04:21:35;22.88;;;11.63;;
10977;SDS011;5542;48.272;10.794;2022-12-18T04:24:01;21.70;;;11.15;;
10977;SDS011;5542;48.272;10.794;2022-12-18T04:26:28;19.75;;;10.95;;
10977;SDS011;5542;48.272;10.794;2022-12-18T04:28:55;16.73;;;10.18;;
10977;SDS011;5542;48.272;10.794;2022-12-18T04:31:21;19.95;;;10.88;;
10977;SDS011;5542;48.272;10.794;2022-12-18T04:33:48;22.80;;;11.40;;
10977;SDS011;5542;48.272;10.794;2022-12-18T04:36:16;21.25;;;11.90;;
10977;SDS011;5542;48.272;10.794;2022-12-18T04:38:42;20.02;;;10.95;;
10977;SDS011;5542;48.272;10.794;2022-12-18T04:41:09;18.08;;;10.48;;
10977;SDS011;5542;48.272;10.794;2022-12-18T04:43:37;20.10;;;10.30;;
10977;SDS011;5542;48.272;10.794;2022-12-18T04:46:05;19.40;;;10.63;;
10977;SDS011;5542;48.272;10.794;2022-12-18T04:48:33;23.52;;;11.38;;
10977;SDS011;5542;48.272;10.794;2022-12-18T04:51:00;22.10;;;11.02;;
10977;SDS011;5542;48.272;10.794;2022-12-18T04:53:28;22.83;;;11.32;;
10977;SDS011;5542;48.272;10.794;2022-12-18T04:56:01;21.38;;;12.05;;
10977;SDS011;5542;48.272;10.794;2022-12-18T04:58:29;17.75;;;10.30;;
10977;SDS011;5542;48.272;10.794;2022-12-18T05:00:56;19.17;;;10.80;;
10977;SDS011;5542;48.272;10.794;2022-12-18T05:03:22;19.27;;;11.32;;
10977;SDS011;5542;48.272;10.794;2022-12-18T05:05:49;18.20;;;10.27;;
10977;SDS011;5542;48.272;10.794;2022-12-18T05:08:16;21.42;;;11.55;;
10977;SDS011;5542;48.272;10.794;2022-12-18T05:10:44;20.55;;;11.20;;
10977;SDS011;5542;48.272;10.794;2022-12-18T05:13:10;22.27;;;10.55;;
10977;SDS011;5542;48.272;10.794;2022-12-18T05:15:37;20.00;;;10.68;;
10977;SDS011;5542;48.272;10.794;2022-12-18T05:18:04;18.65;;;10.77;;
10977;SDS011;5542;48.272;10.794;2022-12-18T05:20:30;19.33;;;10.85;;
10977;SDS011;5542;48.272;10.794;2022-12-18T05:22:57;18.55;;;10.10;;
10977;SDS011;5542;48.272;10.794;2022-12-18T05:25:24;21.52;;;11.70;;
10977;SDS011;5542;48.272;10.794;2022-12-18T05:27:52;20.17;;;11.05;;
10977;SDS011;5542;48.272;10.794;2022-12-18T05:30:19;18.77;;;10.80;;
10977;SDS011;5542;48.272;10.794;2022-12-18T05:32:45;19.65;;;11.00;;
10977;SDS011;5542;48.272;10.794;2022-12-18T05:35:12;19.45;;;10.77;;
10977;SDS011;5542;48.272;10.794;2022-12-18T05:37:38;18.38;;;10.55;;
10977;SDS011;5542;48.272;10.794;2022-12-18T05:40:05;19.80;;;10.80;;
10977;SDS011;5542;48.272;10.794;2022-12-18T05:42:33;20.30;;;10.68;;
10977;SDS011;5542;48.272;10.794;2022-12-18T05:45:01;20.20;;;11.13;;
10977;SDS011;5542;48.272;10.794;2022-12-18T05:47:27;22.25;;;11.30;;
10977;SDS011;5542;48.272;10.794;2022-12-18T05:49:54;23.42;;;11.88;;
10977;SDS011;5542;48.272;10.794;2022-12-18T05:52:21;23.08;;;12.18;;
10977;SDS011;5542;48.272;10.794;2022-12-18T05:54:48;20.48;;;11.98;;
10977;SDS011;5542;48.272;10.794;2022-12-18T05:57:14;20.73;;;10.83;;
10977;SDS011;5542;48.272;10.794;2022-12-18T05:59:41;24.08;;;11.43;;
10977;SDS011;5542;48.272;10.794;2022-12-18T06:02:09;20.45;;;10.90;;
10977;SDS011;5542;48.272;10.794;2022-12-18T06:04:35;21.13;;;12.10;;
10977;SDS011;5542;48.272;10.794;2022-12-18T06:07:02;20.83;;;11.25;;
10977;SDS011;5542;48.272;10.794;2022-12-18T06:09:31;22.50;;;11.73;;
10977;SDS011;5542;48.272;10.794;2022-12-18T06:11:58;23.70;;;12.00;;
10977;SDS011;5542;48.272;10.794;2022-12-18T06:14:24;25.60;;;12.23;;
10977;SDS011;5542;48.272;10.794;2022-12-18T06:16:51;25.13;;;12.55;;
10977;SDS011;5542;48.272;10.794;2022-12-18T06:19:19;21.67;;;11.30;;
10977;SDS011;5542;48.272;10.794;2022-12-18T06:21:46;24.70;;;11.88;;
10977;SDS011;5542;48.272;10.794;2022-12-18T06:24:12;21.92;;;11.65;;
10977;SDS011;5542;48.272;10.794;2022-12-18T06:26:39;22.30;;;11.90;;
10977;SDS011;5542;48.272;10.794;2022-12-18T06:29:06;20.75;;;11.90;;
10977;SDS011;5542;48.272;10.794;2022-12-18T06:31:33;21.52;;;11.80;;
10977;SDS011;5542;48.272;10.794;2022-12-18T06:34:01;21.13;;;11.13;;
10977;SDS011;5542;48.272;10.794;2022-12-18T06:36:30;22.23;;;11.40;;
10977;SDS011;5542;48.272;10.794;2022-12-18T06:38:56;23.05;;;12.50;;
10977;SDS011;5542;48.272;10.794;2022-12-18T06:41:23;22.70;;;11.93;;
10977;SDS011;5542;48.272;10.794;2022-12-18T06:43:50;25.33;;;12.70;;
10977;SDS011;5542;48.272;10.794;2022-12-18T06:46:16;24.73;;;12.93;;
10977;SDS011;5542;48.272;10.794;2022-12-18T06:48:46;23.50;;;11.52;;
10977;SDS011;5542;48.272;10.794;2022-12-18T06:51:15;22.70;;;12.40;;
10977;SDS011;5542;48.272;10.794;2022-12-18T06:53:43;25.20;;;12.73;;
10977;SDS011;5542;48.272;10.794;2022-12-18T06:56:10;25.42;;;12.35;;
10977;SDS011;5542;48.272;10.794;2022-12-18T06:58:36;26.08;;;12.60;;
10977;SDS011;5542;48.272;10.794;2022-12-18T07:01:04;26.07;;;12.73;;
10977;SDS011;5542;48.272;10.794;2022-12-18T07:03:32;27.52;;;12.80;;
10977;SDS011;5542;48.272;10.794;2022-12-18T07:05:58;25.00;;;12.70;;
10977;SDS011;5542;48.272;10.794;2022-12-18T07:08:25;26.00;;;13.32;;
10977;SDS011;5542;48.272;10.794;2022-12-18T07:10:53;22.92;;;12.18;;
10977;SDS011;5542;48.272;10.794;2022-12-18T07:13:20;20.13;;;12.18;;
10977;SDS011;5542;48.272;10.794;2022-12-18T07:15:46;24.33;;;12.80;;
10977;SDS011;5542;48.272;10.794;2022-12-18T07:18:13;23.48;;;12.45;;
10977;SDS011;5542;48.272;10.794;2022-12-18T07:20:39;23.55;;;11.93;;
10977;SDS011;5542;48.272;10.794;2022-12-18T07:23:06;25.33;;;12.52;;
10977;SDS011;5542;48.272;10.794;2022-12-18T07:25:33;24.58;;;12.80;;
10977;SDS011;5542;48.272;10.794;2022-12-18T07:28:01;21.48;;;12.63;;
10977;SDS011;5542;48.272;10.794;2022-12-18T07:30:28;23.10;;;12.27;;
10977;SDS011;5542;48.272;10.794;2022-12-18T07:32:55;22.98;;;12.77;;
10977;SDS011;5542;48.272;10.794;2022-12-18T07:35:21;22.43;;;12.20;;
10977;SDS011;5542;48.272;10.794;2022-12-18T07:37:48;22.45;;;12.38;;
10977;SDS011;5542;48.272;10.794;2022-12-18T07:40:14;22.47;;;11.97;;
10977;SDS011;5542;48.272;10.794;2022-12-18T07:42:41;22.38;;;11.60;;
10977;SDS011;5542;48.272;10.794;2022-12-18T07:45:09;25.55;;;13.07;;
10977;SDS011;5542;48.272;10.794;2022-12-18T07:47:36;22.80;;;12.70;;
10977;SDS011;5542;48.272;10.794;2022-12-18T07:50:03;22.45;;;12.35;;
10977;SDS011;5542;48.272;10.794;2022-12-18T07:52:30;25.23;;;13.07;;
10977;SDS011;5542;48.272;10.794;2022-12-18T07:54:57;23.77;;;12.45;;
10977;SDS011;5542;48.272;10.794;2022-12-18T07:57:23;21.38;;;12.43;;
10977;SDS011;5542;48.272;10.794;2022-12-18T07:59:50;26.38;;;13.75;;
10977;SDS011;5542;48.272;10.794;2022-12-18T08:02:18;24.73;;;13.10;;
10977;SDS011;5542;48.272;10.794;2022-12-18T08:04:45;22.98;;;12.93;;
10977;SDS011;5542;48.272;10.794;2022-12-18T08:07:11;25.35;;;13.10;;
10977;SDS011;5542;48.272;10.794;2022-12-18T08:09:38;23.98;;;13.18;;
10977;SDS011;5542;48.272;10.794;2022-12-18T08:12:05;24.05;;;12.40;;
10977;SDS011;5542;48.272;10.794;2022-12-18T08:14:32;26.48;;;14.02;;
10977;SDS011;5542;48.272;10.794;2022-12-18T08:16:58;24.70;;;13.27;;
10977;SDS011;5542;48.272;10.794;2022-12-18T08:19:26;25.38;;;13.73;;
10977;SDS011;5542;48.272;10.794;2022-12-18T08:21:53;24.48;;;13.93;;
10977;SDS011;5542;48.272;10.794;2022-12-18T08:24:20;25.00;;;14.10;;
10977;SDS011;5542;48.272;10.794;2022-12-18T08:26:46;24.77;;;12.82;;
10977;SDS011;5542;48.272;10.794;2022-12-18T08:29:13;21.37;;;12.63;;
10977;SDS011;5542;48.272;10.794;2022-12-18T08:31:39;26.08;;;13.68;;
10977;SDS011;5542;48.272;10.794;2022-12-18T08:34:07;23.63;;;13.00;;
10977;SDS011;5542;48.272;10.794;2022-12-18T08:36:35;25.55;;;13.38;;
10977;SDS011;5542;48.272;10.794;2022-12-18T08:39:02;24.00;;;13.25;;
10977;SDS011;5542;48.272;10.794;2022-12-18T08:41:29;24.13;;;13.57;;
10977;SDS011;5542;48.272;10.794;2022-12-18T08:43:55;25.67;;;13.43;;
10977;SDS011;5542;48.272;10.794;2022-12-18T08:46:40;21.10;;;11.52;;
10977;SDS011;5542;48.272;10.794;2022-12-18T08:49:08;25.13;;;13.93;;
10977;SDS011;5542;48.272;10.794;2022-12-18T08:51:38;22.92;;;12.90;;
10977;SDS011;5542;48.272;10.794;2022-12-18T08:54:05;22.92;;;13.38;;
10977;SDS011;5542;48.272;10.794;2022-12-18T08:56:32;25.65;;;14.15;;
10977;SDS011;5542;48.272;10.794;2022-12-18T08:58:59;25.35;;;13.70;;
10977;SDS011;5542;48.272;10.794;2022-12-18T09:01:25;23.58;;;13.50;;
10977;SDS011;5542;48.272;10.794;2022-12-18T09:03:52;24.67;;;13.60;;
10977;SDS011;5542;48.272;10.794;2022-12-18T09:06:22;23.15;;;13.23;;
10977;SDS011;5542;48.272;10.794;2022-12-18T09:08:52;27.58;;;13.52;;
10977;SDS011;5542;48.272;10.794;2022-12-18T09:11:20;24.23;;;13.48;;
10977;SDS011;5542;48.272;10.794;2022-12-18T09:13:48;24.42;;;12.63;;
10977;SDS011;5542;48.272;10.794;2022-12-18T09:16:15;24.92;;;13.02;;
10977;SDS011;5542;48.272;10.794;2022-12-18T09:18:42;22.73;;;13.18;;
10977;SDS011;5542;48.272;10.794;2022-12-18T09:21:09;23.60;;;13.50;;
10977;SDS011;5542;48.272;10.794;2022-12-18T09:23:37;21.67;;;12.63;;
10977;SDS011;5542;48.272;10.794;2022-12-18T09:26:05;22.95;;;13.00;;
10977;SDS011;5542;48.272;10.794;2022-12-18T09:28:32;20.77;;;12.02;;
10977;SDS011;5542;48.272;10.794;2022-12-18T09:31:03;21.00;;;12.43;;
10977;SDS011;5542;48.272;10.794;2022-12-18T09:33:30;22.90;;;12.60;;
10977;SDS011;5542;48.272;10.794;2022-12-18T09:35:57;17.35;;;11.00;;
10977;SDS011;5542;48.272;10.794;2022-12-18T09:38:23;20.58;;;11.40;;
10977;SDS011;5542;48.272;10.794;2022-12-18T09:40:51;21.47;;;11.90;;
10977;SDS011;5542;48.272;10.794;2022-12-18T09:43:22;17.85;;;10.60;;
10977;SDS011;5542;48.272;10.794;2022-12-18T09:46:00;20.80;;;11.65;;
10977;SDS011;5542;48.272;10.794;2022-12-18T09:48:30;21.40;;;11.80;;
10977;SDS011;5542;48.272;10.794;2022-12-18T09:51:00;20.67;;;11.18;;
10977;SDS011;5542;48.272;10.794;2022-12-18T09:53:32;18.42;;;11.63;;
10977;SDS011;5542;48.272;10.794;2022-12-18T09:56:04;19.85;;;11.02;;
10977;SDS011;5542;48.272;10.794;2022-12-18T09:58:34;19.92;;;11.68;;
10977;SDS011;5542;48.272;10.794;2022-12-18T10:01:07;18.17;;;11.30;;
10977;SDS011;5542;48.272;10.794;2022-12-18T10:03:36;20.95;;;11.32;;
10977;SDS011;5542;48.272;10.794;2022-12-18T10:06:05;22.00;;;12.13;;
10977;SDS011;5542;48.272;10.794;2022-12-18T10:08:39;21.60;;;11.60;;
10977;SDS011;5542;48.272;10.794;2022-12-18T10:11:20;21.23;;;11.77;;
10977;SDS011;5542;48.272;10.794;2022-12-18T10:13:54;19.45;;;11.40;;
10977;SDS011;5542;48.272;10.794;2022-12-18T10:16:27;19.73;;;11.83;;
10977;SDS011;5542;48.272;10.794;2022-12-18T10:19:10;20.67;;;11.27;;
10977;SDS011;5542;48.272;10.794;2022-12-18T10:21:48;20.20;;;11.65;;
10977;SDS011;5542;48.272;10.794;2022-12-18T10:24:25;19.90;;;12.23;;
10977;SDS011;5542;48.272;10.794;2022-12-18T10:26:59;20.80;;;12.53;;
10977;SDS011;5542;48.272;10.794;2022-12-18T10:29:38;20.40;;;11.52;;
10977;SDS011;5542;48.272;10.794;2022-12-18T10:32:04;20.98;;;12.98;;
10977;SDS011;5542;48.272;10.794;2022-12-18T10:34:31;21.10;;;12.43;;
10977;SDS011;5542;48.272;10.794;2022-12-18T10:36:59;28.40;;;16.50;;
10977;SDS011;5542;48.272;10.794;2022-12-18T10:39:30;23.77;;;13.63;;
10977;SDS011;5542;48.272;10.794;2022-12-18T10:42:04;21.80;;;13.13;;
10977;SDS011;5542;48.272;10.794;2022-12-18T10:44:38;19.07;;;11.33;;
10977;SDS011;5542;48.272;10.794;2022-12-18T10:47:06;18.85;;;10.57;;
10977;SDS011;5542;48.272;10.794;2022-12-18T10:49:38;20.95;;;12.40;;
10977;SDS011;5542;48.272;10.794;2022-12-18T10:52:14;22.70;;;11.73;;
10977;SDS011;5542;48.272;10.794;2022-12-18T10:54:46;19.88;;;11.20;;
10977;SDS011;5542;48.272;10.794;2022-12-18T10:57:15;18.70;;;11.25;;
10977;SDS011;5542;48.272;10.794;2022-12-18T10:59:52;17.63;;;10.82;;
10977;SDS011;5542;48.272;10.794;2022-12-18T11:02:26;17.15;;;10.57;;
10977;SDS011;5542;48.272;10.794;2022-12-18T11:04:56;17.60;;;10.93;;
10977;SDS011;5542;48.272;10.794;2022-12-18T11:07:23;16.58;;;10.23;;
10977;SDS011;5542;48.272;10.794;2022-12-18T11:09:59;19.02;;;11.73;;
10977;SDS011;5542;48.272;10.794;2022-12-18T11:12:29;31.88;;;21.88;;
10977;SDS011;5542;48.272;10.794;2022-12-18T11:14:57;22.48;;;13.30;;
10977;SDS011;5542;48.272;10.794;2022-12-18T11:17:27;19.45;;;11.85;;
10977;SDS011;5542;48.272;10.794;2022-12-18T11:19:56;23.65;;;13.68;;
10977;SDS011;5542;48.272;10.794;2022-12-18T11:22:24;19.85;;;11.52;;
10977;SDS011;5542;48.272;10.794;2022-12-18T11:24:54;20.52;;;11.35;;
10977;SDS011;5542;48.272;10.794;2022-12-18T11:27:23;19.90;;;11.60;;
10977;SDS011;5542;48.272;10.794;2022-12-18T11:29:50;23.63;;;11.95;;
10977;SDS011;5542;48.272;10.794;2022-12-18T11:32:24;25.10;;;15.55;;
10977;SDS011;5542;48.272;10.794;2022-12-18T11:34:58;16.20;;;10.85;;
10977;SDS011;5542;48.272;10.794;2022-12-18T11:37:29;23.92;;;13.48;;
10977;SDS011;5542;48.272;10.794;2022-12-18T11:39:58;19.30;;;12.30;;
10977;SDS011;5542;48.272;10.794;2022-12-18T11:42:32;17.80;;;11.10;;
10977;SDS011;5542;48.272;10.794;2022-12-18T11:45:03;18.53;;;10.60;;
10977;SDS011;5542;48.272;10.794;2022-12-18T11:47:49;23.23;;;13.70;;
10977;SDS011;5542;48.272;10.794;2022-12-18T11:50:23;19.30;;;11.25;;
10977;SDS011;5542;48.272;10.794;2022-12-18T11:52:51;16.70;;;10.40;;
10977;SDS011;5542;48.272;10.794;2022-12-18T11:55:19;20.13;;;11.38;;
10977;SDS011;5542;48.272;10.794;2022-12-18T11:57:54;17.23;;;10.85;;
10977;SDS011;5542;48.272;10.794;2022-12-18T12:00:27;18.27;;;11.88;;
10977;SDS011;5542;48.272;10.794;2022-12-18T12:03:10;22.67;;;12.88;;
10977;SDS011;5542;48.272;10.794;2022-12-18T12:05:51;20.13;;;10.90;;
10977;SDS011;5542;48.272;10.794;2022-12-18T12:08:32;18.48;;;11.77;;
10977;SDS011;5542;48.272;10.794;2022-12-18T12:11:10;19.00;;;10.97;;
10977;SDS011;5542;48.272;10.794;2022-12-18T12:13:48;20.00;;;11.80;;
10977;SDS011;5542;48.272;10.794;2022-12-18T12:16:24;17.77;;;11.10;;
10977;SDS011;5542;48.272;10.794;2022-12-18T12:19:00;16.02;;;10.10;;
10977;SDS011;5542;48.272;10.794;2022-12-18T12:21:38;16.70;;;10.48;;
10977;SDS011;5542;48.272;10.794;2022-12-18T12:24:11;20.63;;;11.40;;
10977;SDS011;5542;48.272;10.794;2022-12-18T12:26:53;20.92;;;11.60;;
10977;SDS011;5542;48.272;10.794;2022-12-18T12:29:31;16.05;;;10.13;;
10977;SDS011;5542;48.272;10.794;2022-12-18T12:32:08;17.85;;;10.75;;
10977;SDS011;5542;48.272;10.794;2022-12-18T12:34:50;20.83;;;11.63;;
10977;SDS011;5542;48.272;10.794;2022-12-18T12:37:29;20.63;;;11.48;;
10977;SDS011;5542;48.272;10.794;2022-12-18T12:40:06;19.63;;;11.40;;
10977;SDS011;5542;48.272;10.794;2022-12-18T12:42:34;22.58;;;11.63;;
10977;SDS011;5542;48.272;10.794;2022-12-18T12:45:23;18.48;;;10.77;;
10977;SDS011;5542;48.272;10.794;2022-12-18T12:47:54;19.60;;;11.73;;
10977;SDS011;5542;48.272;10.794;2022-12-18T12:50:25;20.65;;;11.43;;
10977;SDS011;5542;48.272;10.794;2022-12-18T12:52:53;19.42;;;11.50;;
10977;SDS011;5542;48.272;10.794;2022-12-18T12:55:22;19.33;;;11.45;;
10977;SDS011;5542;48.272;10.794;2022-12-18T12:57:56;19.58;;;11.02;;
10977;SDS011;5542;48.272;10.794;2022-12-18T13:00:30;21.17;;;10.82;;
10977;SDS011;5542;48.272;10.794;2022-12-18T13:03:07;18.77;;;11.57;;
10977;SDS011;5542;48.272;10.794;2022-12-18T13:05:40;20.48;;;12.48;;
10977;SDS011;5542;48.272;10.794;2022-12-18T13:08:21;22.65;;;12.60;;
10977;SDS011;5542;48.272;10.794;2022-12-18T13:10:52;22.67;;;12.45;;
10977;SDS011;5542;48.272;10.794;2022-12-18T13:13:47;20.45;;;11.55;;
10977;SDS011;5542;48.272;10.794;2022-12-18T13:16:15;23.70;;;12.70;;
10977;SDS011;5542;48.272;10.794;2022-12-18T13:18:48;20.80;;;12.13;;
10977;SDS011;5542;48.272;10.794;2022-12-18T13:21:19;20.88;;;12.45;;
10977;SDS011;5542;48.272;10.794;2022-12-18T13:23:49;18.95;;;10.85;;
10977;SDS011;5542;48.272;10.794;2022-12-18T13:26:29;17.35;;;10.90;;
10977;SDS011;5542;48.272;10.794;2022-12-18T13:28:58;18.83;;;11.05;;
10977;SDS011;5542;48.272;10.794;2022-12-18T13:34:29;17.95;;;11.07;;
10977;SDS011;5542;48.272;10.794;2022-12-18T13:43:22;18.70;;;10.95;;
10977;SDS011;5542;48.272;10.794;2022-12-18T13:46:00;18.30;;;10.68;;
10977;SDS011;5542;48.272;10.794;2022-12-18T13:48:30;18.63;;;10.82;;
10977;SDS011;5542;48.272;10.794;2022-12-18T13:51:00;18.70;;;10.57;;
10977;SDS011;5542;48.272;10.794;2022-12-18T13:53:32;17.42;;;11.05;;
10977;SDS011;5542;48.272;10.794;2022-12-18T13:56:01;19.40;;;11.25;;
10977;SDS011;5542;48.272;10.794;2022-12-18T13:58:29;18.27;;;11.48;;
10977;SDS011;5542;48.272;10.794;2022-12-18T14:00:56;20.65;;;11.55;;
10977;SDS011;5542;48.272;10.794;2022-12-18T14:03:25;18.27;;;11.90;;
10977;SDS011;5542;48.272;10.794;2022-12-18T14:05:54;18.90;;;10.60;;
10977;SDS011;5542;48.272;10.794;2022-12-18T14:08:24;19.73;;;11.45;;
10977;SDS011;5542;48.272;10.794;2022-12-18T14:10:55;20.70;;;11.68;;
10977;SDS011;5542;48.272;10.794;2022-12-18T14:13:23;19.75;;;11.63;;
10977;SDS011;5542;48.272;10.794;2022-12-18T14:15:54;21.77;;;12.37;;
10977;SDS011;5542;48.272;10.794;2022-12-18T14:18:22;20.15;;;12.65;;
10977;SDS011;5542;48.272;10.794;2022-12-18T14:20:51;17.70;;;10.52;;
10977;SDS011;5542;48.272;10.794;2022-12-18T14:23:31;20.63;;;10.68;;
10977;SDS011;5542;48.272;10.794;2022-12-18T14:26:01;17.23;;;10.02;;
10977;SDS011;5542;48.272;10.794;2022-12-18T14:28:29;18.50;;;11.25;;
10977;SDS011;5542;48.272;10.794;2022-12-18T14:30:56;17.75;;;10.75;;
10977;SDS011;5542;48.272;10.794;2022-12-18T14:33:23;20.58;;;11.55;;
10977;SDS011;5542;48.272;10.794;2022-12-18T14:35:52;22.25;;;11.52;;
10977;SDS011;5542;48.272;10.794;2022-12-18T14:38:22;19.73;;;10.13;;
10977;SDS011;5542;48.272;10.794;2022-12-18T14:40:52;18.30;;;11.05;;
10977;SDS011;5542;48.272;10.794;2022-12-18T14:43:21;19.10;;;11.75;;
10977;SDS011;5542;48.272;10.794;2022-12-18T14:45:48;16.20;;;10.55;;